Pacquet, Canada
Current Conditions -  °F | °C
As of 10:39 PM on Friday 21 Nov 2014 (Local Time) from CWDH Reporting Station
Scattered Clouds Scattered Clouds  
Wind Chill:   Ceiling: Unl
Heat Index: 22°   Visibility: 1mi
Dew Point: 14°   Wind: 18mph
Humidity: 71%   Direction: 300°WNW
Pressure: 29.45"   Gusts: 25mph
Location:  50°N, 55.87°W
Report Text: CWDH 220139Z AUTO 30016G22KT 1SM SCT019 M06/M10 A2945 RMK PK WND 29024/// T10571102 WSI/SWOB
Loading
Personal Weather Stations






























Interactive Weather Map New forecast layout! Learn more

10-Day Weather Forecast

Advertisements
Track Severe Weather on mobile